sensor_id;sensor_type;location;lat;lon;timestamp;pressure;altitude;pressure_sealevel;temperature;humidity
3150;BME280;32503;47.748;8.960;2023-04-27T00:01:55;96947.72;;;13.49;54.75
3150;BME280;32503;47.748;8.960;2023-04-27T00:04:23;96942.56;;;13.40;54.48
3150;BME280;32503;47.748;8.960;2023-04-27T00:06:50;96935.56;;;13.39;54.71
3150;BME280;32503;47.748;8.960;2023-04-27T00:09:17;96935.56;;;13.39;55.31
3150;BME280;32503;47.748;8.960;2023-04-27T00:11:44;96931.19;;;13.31;55.41
3150;BME280;32503;47.748;8.960;2023-04-27T00:14:12;96932.66;;;13.24;56.23
3150;BME280;32503;47.748;8.960;2023-04-27T00:16:39;96928.81;;;13.25;56.48
3150;BME280;32503;47.748;8.960;2023-04-27T00:19:06;96920.13;;;13.16;56.30
3150;BME280;32503;47.748;8.960;2023-04-27T00:21:35;96932.63;;;13.21;56.38
3150;BME280;32503;47.748;8.960;2023-04-27T00:24:02;96933.31;;;13.14;57.15
3150;BME280;32503;47.748;8.960;2023-04-27T00:26:29;96930.91;;;13.09;57.06
3150;BME280;32503;47.748;8.960;2023-04-27T00:28:56;96933.34;;;13.18;56.93
3150;BME280;32503;47.748;8.960;2023-04-27T00:31:23;96930.25;;;13.19;56.89
3150;BME280;32503;47.748;8.960;2023-04-27T00:33:50;96921.72;;;13.17;56.97
3150;BME280;32503;47.748;8.960;2023-04-27T00:36:17;96916.19;;;13.10;56.78
3150;BME280;32503;47.748;8.960;2023-04-27T00:38:46;96924.03;;;13.15;57.49
3150;BME280;32503;47.748;8.960;2023-04-27T00:41:13;96920.91;;;13.13;57.27
3150;BME280;32503;47.748;8.960;2023-04-27T00:43:44;96918.50;;;13.08;57.12
3150;BME280;32503;47.748;8.960;2023-04-27T00:46:12;96929.78;;;13.10;57.04
3150;BME280;32503;47.748;8.960;2023-04-27T00:48:40;96927.06;;;13.10;57.24
3150;BME280;32503;47.748;8.960;2023-04-27T00:51:07;96926.25;;;13.06;57.28
3150;BME280;32503;47.748;8.960;2023-04-27T00:53:35;96925.41;;;13.02;57.44
3150;BME280;32503;47.748;8.960;2023-04-27T00:56:05;96933.94;;;13.04;57.48
3150;BME280;32503;47.748;8.960;2023-04-27T00:58:32;96930.09;;;13.05;57.25
3150;BME280;32503;47.748;8.960;2023-04-27T01:00:59;96929.31;;;13.04;56.70
3150;BME280;32503;47.748;8.960;2023-04-27T01:03:26;96920.81;;;13.06;56.99
3150;BME280;32503;47.748;8.960;2023-04-27T01:05:53;96923.09;;;13.04;56.79
3150;BME280;32503;47.748;8.960;2023-04-27T01:08:21;96916.44;;;12.98;56.94
3150;BME280;32503;47.748;8.960;2023-04-27T01:10:49;96918.34;;;12.94;57.28
3150;BME280;32503;47.748;8.960;2023-04-27T01:13:17;96920.19;;;12.89;57.01
3150;BME280;32503;47.748;8.960;2023-04-27T01:15:45;96914.03;;;12.93;57.25
3150;BME280;32503;47.748;8.960;2023-04-27T01:18:12;96920.25;;;12.93;57.00
3150;BME280;32503;47.748;8.960;2023-04-27T01:20:39;96921.31;;;12.85;57.49
3150;BME280;32503;47.748;8.960;2023-04-27T01:23:07;96914.69;;;12.82;57.28
3150;BME280;32503;47.748;8.960;2023-04-27T01:25:35;96915.44;;;12.83;57.09
3150;BME280;32503;47.748;8.960;2023-04-27T01:28:02;96909.72;;;12.88;57.53
3150;BME280;32503;47.748;8.960;2023-04-27T01:30:29;96921.78;;;12.90;57.14
3150;BME280;32503;47.748;8.960;2023-04-27T01:32:56;96913.19;;;12.85;57.26
3150;BME280;32503;47.748;8.960;2023-04-27T01:35:23;96919.34;;;12.82;58.00
3150;BME280;32503;47.748;8.960;2023-04-27T01:37:50;96910.41;;;12.81;58.11
3150;BME280;32503;47.748;8.960;2023-04-27T01:40:18;96911.59;;;12.84;58.69
3150;BME280;32503;47.748;8.960;2023-04-27T01:42:46;96906.53;;;12.82;58.86
3150;BME280;32503;47.748;8.960;2023-04-27T01:45:13;96911.16;;;12.78;59.48
3150;BME280;32503;47.748;8.960;2023-04-27T01:47:40;96922.72;;;12.75;60.89
3150;BME280;32503;47.748;8.960;2023-04-27T01:50:08;96921.84;;;12.67;61.02
3150;BME280;32503;47.748;8.960;2023-04-27T01:52:35;96929.63;;;12.69;60.52
3150;BME280;32503;47.748;8.960;2023-04-27T01:55:02;96929.63;;;12.69;60.85
3150;BME280;32503;47.748;8.960;2023-04-27T01:57:30;96932.34;;;12.69;60.75
3150;BME280;32503;47.748;8.960;2023-04-27T01:59:58;96941.19;;;12.66;60.58
3150;BME280;32503;47.748;8.960;2023-04-27T02:02:25;96941.94;;;12.63;60.44
3150;BME280;32503;47.748;8.960;2023-04-27T02:04:52;96940.78;;;12.64;61.28
3150;BME280;32503;47.748;8.960;2023-04-27T02:07:19;96937.97;;;12.57;60.81
3150;BME280;32503;47.748;8.960;2023-04-27T02:09:46;96932.44;;;12.49;60.65
3150;BME280;32503;47.748;8.960;2023-04-27T02:12:13;96923.88;;;12.47;60.34
3150;BME280;32503;47.748;8.960;2023-04-27T02:14:40;96921.59;;;12.49;59.68
3150;BME280;32503;47.748;8.960;2023-04-27T02:17:09;96921.59;;;12.49;60.12
3150;BME280;32503;47.748;8.960;2023-04-27T02:19:36;96920.75;;;12.45;59.98
3150;BME280;32503;47.748;8.960;2023-04-27T02:22:03;96914.50;;;12.41;60.11
3150;BME280;32503;47.748;8.960;2023-04-27T02:24:30;96915.94;;;12.35;60.07
3150;BME280;32503;47.748;8.960;2023-04-27T02:26:57;96919.81;;;12.34;60.90
3150;BME280;32503;47.748;8.960;2023-04-27T02:29:29;96921.66;;;12.30;61.16
3150;BME280;32503;47.748;8.960;2023-04-27T02:31:56;96924.53;;;12.37;60.67
3150;BME280;32503;47.748;8.960;2023-04-27T02:34:24;96926.91;;;12.42;60.55
3150;BME280;32503;47.748;8.960;2023-04-27T02:36:51;96931.19;;;12.43;60.39
3150;BME280;32503;47.748;8.960;2023-04-27T02:39:18;96929.59;;;12.42;59.92
3150;BME280;32503;47.748;8.960;2023-04-27T02:41:45;96934.31;;;12.45;60.56
3150;BME280;32503;47.748;8.960;2023-04-27T02:44:12;96928.88;;;12.45;59.65
3150;BME280;32503;47.748;8.960;2023-04-27T02:46:39;96928.88;;;12.45;60.29
3150;BME280;32503;47.748;8.960;2023-04-27T02:49:06;96929.28;;;12.47;59.90
3150;BME280;32503;47.748;8.960;2023-04-27T02:51:35;96930.09;;;12.48;60.49
3150;BME280;32503;47.748;8.960;2023-04-27T02:54:02;96924.19;;;12.42;59.99
3150;BME280;32503;47.748;8.960;2023-04-27T02:56:29;96927.03;;;12.49;59.71
3150;BME280;32503;47.748;8.960;2023-04-27T02:58:56;96927.69;;;12.43;60.13
3150;BME280;32503;47.748;8.960;2023-04-27T03:01:23;96932.25;;;12.39;60.51
3150;BME280;32503;47.748;8.960;2023-04-27T03:03:51;96944.53;;;12.29;60.65
3150;BME280;32503;47.748;8.960;2023-04-27T03:06:18;96936.81;;;12.31;60.55
3150;BME280;32503;47.748;8.960;2023-04-27T03:08:46;96934.50;;;12.33;60.66
3150;BME280;32503;47.748;8.960;2023-04-27T03:11:13;96939.25;;;12.40;60.30
3150;BME280;32503;47.748;8.960;2023-04-27T03:13:40;96926.84;;;12.39;60.27
3150;BME280;32503;47.748;8.960;2023-04-27T03:16:08;96932.22;;;12.35;60.21
3150;BME280;32503;47.748;8.960;2023-04-27T03:18:36;96927.28;;;12.18;60.61
3150;BME280;32503;47.748;8.960;2023-04-27T03:21:06;96939.81;;;12.26;60.72
3150;BME280;32503;47.748;8.960;2023-04-27T03:23:33;96941.81;;;12.29;60.24
3150;BME280;32503;47.748;8.960;2023-04-27T03:26:05;96951.63;;;12.37;60.22
3150;BME280;32503;47.748;8.960;2023-04-27T03:28:32;96949.22;;;12.32;60.25
3150;BME280;32503;47.748;8.960;2023-04-27T03:31:00;96950.25;;;12.24;60.69
3150;BME280;32503;47.748;8.960;2023-04-27T03:33:30;96952.13;;;12.20;60.77
3150;BME280;32503;47.748;8.960;2023-04-27T03:35:57;96945.25;;;12.26;60.33
3150;BME280;32503;47.748;8.960;2023-04-27T03:38:25;96950.72;;;12.29;60.44
3150;BME280;32503;47.748;8.960;2023-04-27T03:40:53;96951.50;;;12.30;60.91
3150;BME280;32503;47.748;8.960;2023-04-27T03:43:22;96949.88;;;12.25;60.54
3150;BME280;32503;47.748;8.960;2023-04-27T03:45:49;96950.84;;;12.13;61.41
3150;BME280;32503;47.748;8.960;2023-04-27T03:48:18;96958.16;;;12.09;61.58
3150;BME280;32503;47.748;8.960;2023-04-27T03:50:45;96952.31;;;12.07;61.38
3150;BME280;32503;47.748;8.960;2023-04-27T03:53:13;96948.44;;;12.08;61.26
3150;BME280;32503;47.748;8.960;2023-04-27T03:55:41;96951.09;;;12.05;61.13
3150;BME280;32503;47.748;8.960;2023-04-27T03:58:09;96958.63;;;11.92;61.79
3150;BME280;32503;47.748;8.960;2023-04-27T04:00:38;96952.91;;;11.97;61.29
3150;BME280;32503;47.748;8.960;2023-04-27T04:03:06;96959.88;;;11.98;61.79
3150;BME280;32503;47.748;8.960;2023-04-27T04:05:33;96958.03;;;12.02;60.91
3150;BME280;32503;47.748;8.960;2023-04-27T04:08:00;96962.72;;;12.05;60.98
3150;BME280;32503;47.748;8.960;2023-04-27T04:10:28;96953.84;;;12.08;61.32
3150;BME280;32503;47.748;8.960;2023-04-27T04:12:55;96950.44;;;12.11;61.24
3150;BME280;32503;47.748;8.960;2023-04-27T04:15:22;96967.88;;;12.14;60.36
3150;BME280;32503;47.748;8.960;2023-04-27T04:17:51;96955.44;;;12.09;60.56
3150;BME280;32503;47.748;8.960;2023-04-27T04:20:18;96967.00;;;12.06;60.54
3150;BME280;32503;47.748;8.960;2023-04-27T04:22:45;96970.06;;;12.05;60.41
3150;BME280;32503;47.748;8.960;2023-04-27T04:25:12;96971.28;;;12.07;60.38
3150;BME280;32503;47.748;8.960;2023-04-27T04:27:39;96960.44;;;12.07;60.80
3150;BME280;32503;47.748;8.960;2023-04-27T04:30:07;96965.78;;;12.04;61.85
3150;BME280;32503;47.748;8.960;2023-04-27T04:32:35;96957.59;;;12.00;62.17
3150;BME280;32503;47.748;8.960;2023-04-27T04:35:05;96966.94;;;12.03;62.47
3150;BME280;32503;47.748;8.960;2023-04-27T04:37:33;96938.06;;;11.91;62.02
3150;BME280;32503;47.748;8.960;2023-04-27T04:40:03;96967.75;;;12.07;61.91
3150;BME280;32503;47.748;8.960;2023-04-27T04:42:34;96974.41;;;12.09;62.07
3150;BME280;32503;47.748;8.960;2023-04-27T04:45:03;96960.13;;;12.12;62.02
3150;BME280;32503;47.748;8.960;2023-04-27T04:47:30;96959.81;;;12.18;61.75
3150;BME280;32503;47.748;8.960;2023-04-27T04:49:59;96964.03;;;12.15;61.37
3150;BME280;32503;47.748;8.960;2023-04-27T04:52:29;96970.53;;;12.10;62.15
3150;BME280;32503;47.748;8.960;2023-04-27T04:54:56;96965.09;;;12.10;62.56
3150;BME280;32503;47.748;8.960;2023-04-27T04:57:23;96962.91;;;12.16;61.81
3150;BME280;32503;47.748;8.960;2023-04-27T04:59:50;96967.09;;;12.13;62.38
3150;BME280;32503;47.748;8.960;2023-04-27T05:02:17;96976.88;;;12.18;62.84
3150;BME280;32503;47.748;8.960;2023-04-27T05:04:44;96973.28;;;12.14;62.90
3150;BME280;32503;47.748;8.960;2023-04-27T05:07:12;96972.09;;;12.11;62.74
3150;BME280;32503;47.748;8.960;2023-04-27T05:09:40;96976.06;;;12.18;63.19
3150;BME280;32503;47.748;8.960;2023-04-27T05:12:07;96976.63;;;12.27;62.00
3150;BME280;32503;47.748;8.960;2023-04-27T05:14:35;96968.78;;;12.45;61.38
3150;BME280;32503;47.748;8.960;2023-04-27T05:17:02;96973.84;;;12.46;61.19
3150;BME280;32503;47.748;8.960;2023-04-27T05:19:29;96968.78;;;12.45;60.91
3150;BME280;32503;47.748;8.960;2023-04-27T05:21:57;96964.84;;;12.42;61.03
3150;BME280;32503;47.748;8.960;2023-04-27T05:24:24;96971.78;;;12.40;60.54
3150;BME280;32503;47.748;8.960;2023-04-27T05:26:53;96965.91;;;12.34;60.74
3150;BME280;32503;47.748;8.960;2023-04-27T05:29:20;96976.13;;;12.44;60.02
3150;BME280;32503;47.748;8.960;2023-04-27T05:31:47;96975.78;;;12.46;59.55
3150;BME280;32503;47.748;8.960;2023-04-27T05:34:14;96978.09;;;12.47;60.34
3150;BME280;32503;47.748;8.960;2023-04-27T05:36:42;96980.16;;;12.54;59.83
3150;BME280;32503;47.748;8.960;2023-04-27T05:39:09;96984.06;;;12.57;59.73
3150;BME280;32503;47.748;8.960;2023-04-27T05:41:36;96984.19;;;12.64;60.39
3150;BME280;32503;47.748;8.960;2023-04-27T05:44:05;96985.53;;;12.77;59.44
3150;BME280;32503;47.748;8.960;2023-04-27T05:46:32;96963.78;;;12.74;59.70
3150;BME280;32503;47.748;8.960;2023-04-27T05:49:00;96989.59;;;12.90;59.56
3150;BME280;32503;47.748;8.960;2023-04-27T05:51:27;96980.41;;;12.99;59.63
3150;BME280;32503;47.748;8.960;2023-04-27T05:53:54;96985.09;;;13.02;59.13
3150;BME280;32503;47.748;8.960;2023-04-27T05:56:21;96987.13;;;13.08;58.93
3150;BME280;32503;47.748;8.960;2023-04-27T05:58:48;96996.91;;;13.13;58.69
3150;BME280;32503;47.748;8.960;2023-04-27T06:01:18;96993.91;;;13.22;58.42
3150;BME280;32503;47.748;8.960;2023-04-27T06:03:45;96999.50;;;13.33;58.11
3150;BME280;32503;47.748;8.960;2023-04-27T06:06:12;97002.72;;;13.42;58.03
3150;BME280;32503;47.748;8.960;2023-04-27T06:08:39;96970.78;;;13.32;57.93
3150;BME280;32503;47.748;8.960;2023-04-27T06:11:06;96997.50;;;13.60;57.51
3150;BME280;32503;47.748;8.960;2023-04-27T06:13:33;96995.22;;;13.65;57.18
3150;BME280;32503;47.748;8.960;2023-04-27T06:16:00;96994.50;;;13.69;57.13
3150;BME280;32503;47.748;8.960;2023-04-27T06:18:29;96996.91;;;13.77;57.03
3150;BME280;32503;47.748;8.960;2023-04-27T06:20:59;96995.81;;;13.82;56.70
3150;BME280;32503;47.748;8.960;2023-04-27T06:23:27;96989.28;;;13.90;56.49
3150;BME280;32503;47.748;8.960;2023-04-27T06:25:54;96995.97;;;13.96;56.77
3150;BME280;32503;47.748;8.960;2023-04-27T06:28:21;97001.06;;;14.01;56.51
3150;BME280;32503;47.748;8.960;2023-04-27T06:30:48;96996.50;;;14.13;56.60
3150;BME280;32503;47.748;8.960;2023-04-27T06:33:15;97005.22;;;14.33;56.06
3150;BME280;32503;47.748;8.960;2023-04-27T06:35:44;97006.16;;;14.51;55.75
3150;BME280;32503;47.748;8.960;2023-04-27T06:38:11;97010.66;;;14.77;55.22
3150;BME280;32503;47.748;8.960;2023-04-27T06:40:38;97007.75;;;15.08;54.39
3150;BME280;32503;47.748;8.960;2023-04-27T06:43:06;97020.97;;;15.09;53.67
3150;BME280;32503;47.748;8.960;2023-04-27T06:45:33;97010.16;;;15.20;53.49
3150;BME280;32503;47.748;8.960;2023-04-27T06:48:00;97009.06;;;15.32;53.34
3150;BME280;32503;47.748;8.960;2023-04-27T06:50:27;97012.25;;;15.55;52.86
3150;BME280;32503;47.748;8.960;2023-04-27T06:52:56;97011.94;;;15.71;52.95
3150;BME280;32503;47.748;8.960;2023-04-27T06:55:23;97017.47;;;15.97;52.44
3150;BME280;32503;47.748;8.960;2023-04-27T06:57:50;97008.56;;;16.14;51.99
3150;BME280;32503;47.748;8.960;2023-04-27T07:00:18;97021.03;;;16.19;51.52
3150;BME280;32503;47.748;8.960;2023-04-27T07:02:45;97021.81;;;16.12;50.82
3150;BME280;32503;47.748;8.960;2023-04-27T07:05:12;97021.78;;;16.08;51.37
3150;BME280;32503;47.748;8.960;2023-04-27T07:07:40;97013.59;;;16.01;51.56
3150;BME280;32503;47.748;8.960;2023-04-27T07:10:09;97031.94;;;16.08;52.58
3150;BME280;32503;47.748;8.960;2023-04-27T07:12:36;97029.22;;;16.08;52.58
3150;BME280;32503;47.748;8.960;2023-04-27T07:15:04;97014.00;;;16.14;52.51
3150;BME280;32503;47.748;8.960;2023-04-27T07:17:32;97030.78;;;16.23;52.97
3150;BME280;32503;47.748;8.960;2023-04-27T07:20:00;97018.69;;;16.03;51.11
3150;BME280;32503;47.748;8.960;2023-04-27T07:22:28;97021.78;;;15.94;52.19
3150;BME280;32503;47.748;8.960;2023-04-27T07:24:55;97025.28;;;16.02;52.67
3150;BME280;32503;47.748;8.960;2023-04-27T07:27:24;97021.81;;;16.12;53.47
3150;BME280;32503;47.748;8.960;2023-04-27T07:29:52;97024.94;;;16.28;53.52
3150;BME280;32503;47.748;8.960;2023-04-27T07:32:19;97017.94;;;16.24;52.42
3150;BME280;32503;47.748;8.960;2023-04-27T07:34:47;97024.91;;;16.10;51.61
3150;BME280;32503;47.748;8.960;2023-04-27T07:37:15;97016.31;;;15.94;51.79
3150;BME280;32503;47.748;8.960;2023-04-27T07:39:42;97031.50;;;15.99;52.90
3150;BME280;32503;47.748;8.960;2023-04-27T07:42:10;97028.03;;;16.05;54.32
3150;BME280;32503;47.748;8.960;2023-04-27T07:44:41;97035.06;;;16.10;54.04
3150;BME280;32503;47.748;8.960;2023-04-27T07:47:08;97031.56;;;16.20;53.87
3150;BME280;32503;47.748;8.960;2023-04-27T07:49:35;97029.22;;;16.11;50.34
3150;BME280;32503;47.748;8.960;2023-04-27T07:52:03;97030.38;;;16.10;49.18
3150;BME280;32503;47.748;8.960;2023-04-27T07:54:30;97031.50;;;15.95;49.14
3150;BME280;32503;47.748;8.960;2023-04-27T07:56:57;97028.38;;;15.97;50.19
3150;BME280;32503;47.748;8.960;2023-04-27T07:59:27;97035.03;;;16.03;50.50
3150;BME280;32503;47.748;8.960;2023-04-27T08:01:56;97030.38;;;16.14;50.86
3150;BME280;32503;47.748;8.960;2023-04-27T08:04:23;97035.84;;;16.25;50.26
3150;BME280;32503;47.748;8.960;2023-04-27T08:06:50;97034.69;;;16.29;50.04
3150;BME280;32503;47.748;8.960;2023-04-27T08:09:17;97035.88;;;16.46;49.62
3150;BME280;32503;47.748;8.960;2023-04-27T08:11:44;97026.91;;;16.64;49.58
3150;BME280;32503;47.748;8.960;2023-04-27T08:14:11;97025.75;;;16.90;48.20
3150;BME280;32503;47.748;8.960;2023-04-27T08:16:40;97031.19;;;17.26;48.40
3150;BME280;32503;47.748;8.960;2023-04-27T08:19:09;97023.31;;;17.42;47.71
3150;BME280;32503;47.748;8.960;2023-04-27T08:21:36;97034.22;;;17.53;46.63
3150;BME280;32503;47.748;8.960;2023-04-27T08:24:05;97034.97;;;17.57;45.99
3150;BME280;32503;47.748;8.960;2023-04-27T08:26:32;97033.84;;;17.51;46.21
3150;BME280;32503;47.748;8.960;2023-04-27T08:29:00;97028.38;;;17.51;46.39
3150;BME280;32503;47.748;8.960;2023-04-27T08:31:27;97024.06;;;17.47;46.55
3150;BME280;32503;47.748;8.960;2023-04-27T08:33:55;97031.06;;;17.62;46.68
3150;BME280;32503;47.748;8.960;2023-04-27T08:36:24;97026.31;;;17.70;46.87
3150;BME280;32503;47.748;8.960;2023-04-27T08:38:53;97023.97;;;17.79;46.78
3150;BME280;32503;47.748;8.960;2023-04-27T08:41:21;97022.78;;;17.76;46.98
3150;BME280;32503;47.748;8.960;2023-04-27T08:43:50;97021.63;;;17.77;47.38
3150;BME280;32503;47.748;8.960;2023-04-27T08:46:18;97020.81;;;17.80;47.04
3150;BME280;32503;47.748;8.960;2023-04-27T08:48:48;97026.75;;;17.65;47.00
3150;BME280;32503;47.748;8.960;2023-04-27T08:51:16;97024.88;;;17.51;48.07
3150;BME280;32503;47.748;8.960;2023-04-27T08:53:48;97019.34;;;17.61;47.81
3150;BME280;32503;47.748;8.960;2023-04-27T08:56:16;97015.53;;;17.37;48.13
3150;BME280;32503;47.748;8.960;2023-04-27T08:58:43;97018.63;;;17.39;48.66
3150;BME280;32503;47.748;8.960;2023-04-27T09:01:10;97021.00;;;17.30;49.62
3150;BME280;32503;47.748;8.960;2023-04-27T09:03:37;97022.63;;;16.92;50.16
3150;BME280;32503;47.748;8.960;2023-04-27T09:06:06;97022.63;;;16.48;52.05
3150;BME280;32503;47.748;8.960;2023-04-27T09:08:48;97017.19;;;16.38;51.10
3150;BME280;32503;47.748;8.960;2023-04-27T09:11:28;97026.84;;;16.03;52.18
3150;BME280;32503;47.748;8.960;2023-04-27T09:13:57;97024.13;;;15.99;52.47
3150;BME280;32503;47.748;8.960;2023-04-27T09:16:26;97017.13;;;16.09;51.45
3150;BME280;32503;47.748;8.960;2023-04-27T09:18:54;97027.22;;;15.90;52.33
3150;BME280;32503;47.748;8.960;2023-04-27T09:21:22;97013.09;;;15.70;52.10
3150;BME280;32503;47.748;8.960;2023-04-27T09:23:51;97019.97;;;15.39;52.47
3150;BME280;32503;47.748;8.960;2023-04-27T09:26:20;97014.88;;;15.30;52.25
3150;BME280;32503;47.748;8.960;2023-04-27T09:28:50;97000.13;;;15.42;52.19
3150;BME280;32503;47.748;8.960;2023-04-27T09:31:18;97005.41;;;15.90;52.46
3150;BME280;32503;47.748;8.960;2023-04-27T09:33:53;97005.81;;;16.00;50.73
3150;BME280;32503;47.748;8.960;2023-04-27T09:36:21;96990.66;;;16.27;50.85
3150;BME280;32503;47.748;8.960;2023-04-27T09:38:52;96996.91;;;16.46;50.19
3150;BME280;32503;47.748;8.960;2023-04-27T09:41:19;96997.69;;;16.72;50.54
3150;BME280;32503;47.748;8.960;2023-04-27T09:43:48;97005.88;;;16.93;48.96
3150;BME280;32503;47.748;8.960;2023-04-27T09:46:15;97005.78;;;17.25;49.07
3150;BME280;32503;47.748;8.960;2023-04-27T09:48:42;97005.72;;;17.51;48.19
3150;BME280;32503;47.748;8.960;2023-04-27T09:51:09;97009.22;;;17.55;47.75
3150;BME280;32503;47.748;8.960;2023-04-27T09:53:39;96998.25;;;17.62;47.77
3150;BME280;32503;47.748;8.960;2023-04-27T09:56:25;97003.31;;;17.67;47.51
3150;BME280;32503;47.748;8.960;2023-04-27T09:59:17;97002.94;;;17.65;47.31
3150;BME280;32503;47.748;8.960;2023-04-27T10:01:53;96986.94;;;17.60;47.07
3150;BME280;32503;47.748;8.960;2023-04-27T10:04:38;96999.03;;;17.62;46.47
3150;BME280;32503;47.748;8.960;2023-04-27T10:07:11;96978.00;;;17.49;46.60
3150;BME280;32503;47.748;8.960;2023-04-27T10:09:40;96991.25;;;17.54;47.04
3150;BME280;32503;47.748;8.960;2023-04-27T10:12:25;96993.59;;;17.55;47.14
3150;BME280;32503;47.748;8.960;2023-04-27T10:14:55;96985.78;;;17.57;46.53
3150;BME280;32503;47.748;8.960;2023-04-27T10:17:30;96971.25;;;17.71;46.51
3150;BME280;32503;47.748;8.960;2023-04-27T10:19:59;96970.84;;;17.76;46.05
3150;BME280;32503;47.748;8.960;2023-04-27T10:22:38;96974.69;;;17.93;45.93
3150;BME280;32503;47.748;8.960;2023-04-27T10:25:16;96970.00;;;17.94;44.98
3150;BME280;32503;47.748;8.960;2023-04-27T10:27:49;96981.59;;;18.12;44.45
3150;BME280;32503;47.748;8.960;2023-04-27T10:30:19;96983.06;;;18.28;42.85
3150;BME280;32503;47.748;8.960;2023-04-27T10:32:51;96979.03;;;18.43;40.69
3150;BME280;32503;47.748;8.960;2023-04-27T10:35:20;96982.06;;;18.56;40.72
3150;BME280;32503;47.748;8.960;2023-04-27T10:37:47;96981.88;;;18.74;39.14
3150;BME280;32503;47.748;8.960;2023-04-27T10:40:15;96973.97;;;18.90;39.57
3150;BME280;32503;47.748;8.960;2023-04-27T10:42:44;96978.91;;;19.03;39.47
3150;BME280;32503;47.748;8.960;2023-04-27T10:45:25;96970.94;;;19.16;38.56
3150;BME280;32503;47.748;8.960;2023-04-27T10:48:00;96954.63;;;19.39;39.01
3150;BME280;32503;47.748;8.960;2023-04-27T10:50:27;96976.53;;;19.39;39.46
3150;BME280;32503;47.748;8.960;2023-04-27T10:52:59;96970.28;;;19.39;40.29
3150;BME280;32503;47.748;8.960;2023-04-27T10:55:28;96971.84;;;19.05;39.45
3150;BME280;32503;47.748;8.960;2023-04-27T10:57:56;96969.94;;;18.99;39.74
3150;BME280;32503;47.748;8.960;2023-04-27T11:00:27;96963.56;;;19.09;39.23
3150;BME280;32503;47.748;8.960;2023-04-27T11:02:56;96964.00;;;19.42;39.04
3150;BME280;32503;47.748;8.960;2023-04-27T11:05:26;96966.72;;;19.73;39.07
3150;BME280;32503;47.748;8.960;2023-04-27T11:08:04;96960.69;;;20.16;38.19
3150;BME280;32503;47.748;8.960;2023-04-27T11:10:33;96957.41;;;20.48;37.77
3150;BME280;32503;47.748;8.960;2023-04-27T11:13:07;96955.13;;;20.70;37.24
3150;BME280;32503;47.748;8.960;2023-04-27T11:15:46;96949.81;;;21.03;36.90
3150;BME280;32503;47.748;8.960;2023-04-27T11:18:14;96946.38;;;20.99;35.85
3150;BME280;32503;47.748;8.960;2023-04-27T11:20:43;96950.47;;;20.67;34.85
3150;BME280;32503;47.748;8.960;2023-04-27T11:23:21;96945.91;;;20.57;35.34
3150;BME280;32503;47.748;8.960;2023-04-27T11:25:49;96953.22;;;20.67;36.93
3150;BME280;32503;47.748;8.960;2023-04-27T11:28:17;96948.91;;;20.66;37.32
3150;BME280;32503;47.748;8.960;2023-04-27T11:30:54;96948.66;;;20.80;37.05
3150;BME280;32503;47.748;8.960;2023-04-27T11:33:21;96940.38;;;21.04;36.64
3150;BME280;32503;47.748;8.960;2023-04-27T11:35:48;96945.41;;;20.86;35.75
3150;BME280;32503;47.748;8.960;2023-04-27T11:38:15;96952.09;;;20.61;36.22
3150;BME280;32503;47.748;8.960;2023-04-27T11:40:43;96947.03;;;20.83;37.08
3150;BME280;32503;47.748;8.960;2023-04-27T11:43:12;96949.47;;;21.01;37.00
3150;BME280;32503;47.748;8.960;2023-04-27T11:45:41;96948.34;;;21.18;36.33
3150;BME280;32503;47.748;8.960;2023-04-27T11:48:14;96931.97;;;21.31;35.96
3150;BME280;32503;47.748;8.960;2023-04-27T11:50:45;96946.00;;;21.77;35.96
3150;BME280;32503;47.748;8.960;2023-04-27T11:53:12;96947.50;;;22.14;35.33
3150;BME280;32503;47.748;8.960;2023-04-27T11:55:40;96946.16;;;22.39;33.67
3150;BME280;32503;47.748;8.960;2023-04-27T11:58:13;96943.41;;;22.56;31.93
3150;BME280;32503;47.748;8.960;2023-04-27T12:00:40;96936.91;;;22.13;31.45
3150;BME280;32503;47.748;8.960;2023-04-27T12:03:08;96914.56;;;21.58;32.29
3150;BME280;32503;47.748;8.960;2023-04-27T12:05:46;96944.28;;;21.27;35.66
3150;BME280;32503;47.748;8.960;2023-04-27T12:08:14;96940.03;;;21.02;36.65
3150;BME280;32503;47.748;8.960;2023-04-27T12:10:41;96936.91;;;21.00;36.27
3150;BME280;32503;47.748;8.960;2023-04-27T12:13:08;96938.03;;;20.82;35.04
3150;BME280;32503;47.748;8.960;2023-04-27T12:15:36;96935.38;;;20.99;35.60
3150;BME280;32503;47.748;8.960;2023-04-27T12:18:03;96936.41;;;21.05;36.32
3150;BME280;32503;47.748;8.960;2023-04-27T12:20:31;96937.06;;;21.13;36.21
3150;BME280;32503;47.748;8.960;2023-04-27T12:22:59;96918.34;;;20.64;36.52
3150;BME280;32503;47.748;8.960;2023-04-27T12:25:26;96921.38;;;20.70;37.04
3150;BME280;32503;47.748;8.960;2023-04-27T12:27:53;96919.56;;;20.59;37.48
3150;BME280;32503;47.748;8.960;2023-04-27T12:30:22;96917.38;;;20.74;37.07
3150;BME280;32503;47.748;8.960;2023-04-27T12:32:49;96929.41;;;20.57;37.22
3150;BME280;32503;47.748;8.960;2023-04-27T12:35:16;96922.44;;;20.52;37.42
3150;BME280;32503;47.748;8.960;2023-04-27T12:37:43;96926.09;;;20.45;38.84
3150;BME280;32503;47.748;8.960;2023-04-27T12:40:14;96917.19;;;20.38;37.95
3150;BME280;32503;47.748;8.960;2023-04-27T12:42:41;96925.78;;;20.40;37.44
3150;BME280;32503;47.748;8.960;2023-04-27T12:45:09;96922.25;;;20.16;38.22
3150;BME280;32503;47.748;8.960;2023-04-27T12:47:36;96896.47;;;20.10;38.35
3150;BME280;32503;47.748;8.960;2023-04-27T12:50:06;96918.47;;;20.06;38.31
3150;BME280;32503;47.748;8.960;2023-04-27T12:52:34;96917.38;;;19.73;38.20
3150;BME280;32503;47.748;8.960;2023-04-27T12:55:01;96912.22;;;19.47;39.14
3150;BME280;32503;47.748;8.960;2023-04-27T12:57:30;96913.53;;;19.66;38.58
3150;BME280;32503;47.748;8.960;2023-04-27T12:59:57;96908.25;;;20.10;39.02
3150;BME280;32503;47.748;8.960;2023-04-27T13:02:25;96906.41;;;20.51;38.22
3150;BME280;32503;47.748;8.960;2023-04-27T13:04:52;96905.13;;;20.99;37.31
3150;BME280;32503;47.748;8.960;2023-04-27T13:07:20;96901.53;;;21.22;36.09
3150;BME280;32503;47.748;8.960;2023-04-27T13:09:47;96897.66;;;20.56;36.34
3150;BME280;32503;47.748;8.960;2023-04-27T13:12:14;96899.88;;;20.17;37.21
3150;BME280;32503;47.748;8.960;2023-04-27T13:14:42;96891.72;;;20.37;37.36
3150;BME280;32503;47.748;8.960;2023-04-27T13:17:10;96895.88;;;20.69;37.37